Time;durP1;ratioP1;P1;durP2;ratioP2;P2;SDS_P1;SDS_P2;PMS_P1;PMS_P2;Temp;Humidity;BMP_temperature;BMP_pressure;BME280_temperature;BME280_humidity;BME280_pressure;Samples;Min_cycle;Max_cycle;Signal;HPM_P1;HPM_P2
2024/01/30 00:02:56;;;;;;;37.15;14.32;;;;;;;-1.12;100.00;102341.47;6269725;28;20053;-73
2024/01/30 00:05:57;;;;;;;31.27;13.18;;;;;;;-1.23;100.00;102343.78;6267527;28;20053;-73
2024/01/30 00:08:58;;;;;;;25.50;11.73;;;;;;;-1.27;100.00;102335.97;6263653;28;20107;-68
2024/01/30 00:11:59;;;;;;;32.70;14.88;;;;;;;-1.30;100.00;102339.31;6266684;28;20045;-67
2024/01/30 00:15:00;;;;;;;33.35;14.25;;;;;;;-1.35;100.00;102348.59;6271273;28;20049;-73
2024/01/30 00:18:01;;;;;;;30.17;13.23;;;;;;;-1.31;100.00;102350.41;6271677;28;20135;-67
2024/01/30 00:21:02;;;;;;;39.00;13.75;;;;;;;-1.33;100.00;102346.06;6267270;28;20055;-73
2024/01/30 00:24:03;;;;;;;37.42;13.25;;;;;;;-1.33;100.00;102343.50;6263946;28;20045;-73
2024/01/30 00:27:04;;;;;;;30.13;11.20;;;;;;;-1.37;100.00;102355.38;6269192;28;20410;-67
2024/01/30 00:30:05;;;;;;;31.00;11.93;;;;;;;-1.37;100.00;102352.81;6257196;28;20078;-67
2024/01/30 00:33:06;;;;;;;24.30;12.77;;;;;;;-1.36;100.00;102348.53;6267812;28;20555;-68
2024/01/30 00:36:08;;;;;;;31.23;14.27;;;;;;;-1.34;100.00;102359.69;6263300;28;20049;-73
2024/01/30 00:39:09;;;;;;;17.45;10.15;;;;;;;-1.39;100.00;102361.28;6267990;28;20045;-74
2024/01/30 00:42:10;;;;;;;32.35;10.65;;;;;;;-1.44;100.00;102356.91;6270751;28;20415;-73
2024/01/30 00:45:16;;;;;;;18.73;9.32;;;;;;;-1.37;100.00;102360.50;6269188;28;20045;-73
2024/01/30 00:48:17;;;;;;;15.30;8.30;;;;;;;-1.33;100.00;102359.75;6264636;28;20041;-73
2024/01/30 00:51:18;;;;;;;22.65;10.57;;;;;;;-1.33;100.00;102362.31;6268701;28;20049;-73
2024/01/30 00:54:18;;;;;;;17.20;8.63;;;;;;;-1.32;100.00;102360.59;6269499;28;20068;-73
2024/01/30 00:57:19;;;;;;;15.27;8.35;;;;;;;-1.35;100.00;102355.41;6268600;28;20045;-73
2024/01/30 01:00:20;;;;;;;18.48;9.70;;;;;;;-1.39;100.00;102353.59;6268946;28;20045;-73
2024/01/30 01:03:21;;;;;;;20.20;9.75;;;;;;;-1.40;100.00;102355.31;6265379;28;20087;-73
2024/01/30 01:06:22;;;;;;;21.92;9.40;;;;;;;-1.41;100.00;102363.81;6268107;28;20484;-73
2024/01/30 01:09:25;;;;;;;16.88;9.02;;;;;;;-1.43;100.00;102365.47;6263738;28;20052;-73
2024/01/30 01:12:26;;;;;;;16.65;8.65;;;;;;;-1.45;100.00;102364.56;6267091;28;20458;-73
2024/01/30 01:15:27;;;;;;;18.73;10.05;;;;;;;-1.47;100.00;102356.81;6265589;28;20056;-73
2024/01/30 01:18:27;;;;;;;20.98;9.52;;;;;;;-1.50;100.00;102350.78;6263448;28;21280;-73
2024/01/30 01:21:28;;;;;;;19.55;9.93;;;;;;;-1.48;100.00;102351.69;6267392;28;20052;-73
2024/01/30 01:24:32;;;;;;;17.80;8.70;;;;;;;-1.52;100.00;102345.63;6268220;28;20044;-73
2024/01/30 01:27:40;;;;;;;25.25;10.27;;;;;;;-1.57;100.00;102351.44;6267753;28;20060;-73
2024/01/30 01:30:41;;;;;;;15.82;10.25;;;;;;;-1.64;100.00;102358.97;6269911;28;20049;-73
2024/01/30 01:33:42;;;;;;;20.05;9.98;;;;;;;-1.65;100.00;102356.34;6265277;28;20052;-73
2024/01/30 01:36:43;;;;;;;18.38;9.55;;;;;;;-1.64;100.00;102356.41;6264585;28;20076;-73
2024/01/30 01:39:44;;;;;;;16.17;8.45;;;;;;;-1.67;100.00;102348.66;6272057;28;20056;-73
2024/01/30 01:42:44;;;;;;;23.25;11.02;;;;;;;-1.84;100.00;102347.31;6272067;28;20056;-73
2024/01/30 01:45:45;;;;;;;17.48;9.15;;;;;;;-1.74;100.00;102354.44;6270499;28;20173;-67
2024/01/30 01:48:46;;;;;;;17.92;10.35;;;;;;;-1.74;100.00;102354.44;6265776;28;20053;-67
2024/01/30 01:51:48;;;;;;;14.88;9.07;;;;;;;-1.76;100.00;102350.97;6280166;28;20049;-68
2024/01/30 01:54:49;;;;;;;20.95;8.30;;;;;;;-1.74;100.00;102358.69;6265091;28;20041;-69
2024/01/30 01:57:50;;;;;;;21.00;9.32;;;;;;;-1.83;100.00;102354.19;6282114;28;20083;-73
2024/01/30 02:00:51;;;;;;;18.27;8.63;;;;;;;-1.83;100.00;102354.19;6265669;28;20510;-73
2024/01/30 02:03:54;;;;;;;16.75;8.93;;;;;;;-1.82;100.00;102358.47;6268427;28;20146;-73
2024/01/30 02:06:55;;;;;;;15.25;9.98;;;;;;;-1.82;100.00;102359.34;6270525;28;20057;-73
2024/01/30 02:09:56;;;;;;;15.75;8.55;;;;;;;-1.89;100.00;102354.88;6294902;28;20098;-73
2024/01/30 02:12:57;;;;;;;16.80;8.23;;;;;;;-1.89;100.00;102362.56;6277496;28;20049;-73
2024/01/30 02:15:57;;;;;;;20.20;9.60;;;;;;;-1.87;100.00;102355.78;6271224;28;20049;-68
2024/01/30 02:18:58;;;;;;;23.08;10.35;;;;;;;-1.88;100.00;102358.31;6271914;28;20052;-68
2024/01/30 02:21:59;;;;;;;15.70;8.45;;;;;;;-1.94;100.00;102359.00;6281399;28;20049;-67
2024/01/30 02:25:00;;;;;;;19.55;10.10;;;;;;;-1.89;100.00;102356.59;6262548;28;20052;-68
2024/01/30 02:28:01;;;;;;;20.95;10.50;;;;;;;-1.90;100.00;102358.25;6285296;28;20097;-68
2024/01/30 02:31:02;;;;;;;18.42;10.15;;;;;;;-1.89;100.00;102354.88;6275808;28;20045;-67
2024/01/30 02:34:02;;;;;;;22.90;11.13;;;;;;;-1.89;100.00;102352.31;6274344;28;20175;-67
2024/01/30 02:37:04;;;;;;;14.80;9.07;;;;;;;-1.86;100.00;102352.41;6274089;28;20083;-68
2024/01/30 02:40:05;;;;;;;17.70;9.63;;;;;;;-1.89;100.00;102347.22;6278128;28;20161;-67
2024/01/30 02:43:06;;;;;;;24.77;10.03;;;;;;;-1.94;100.00;102342.78;6271685;28;20494;-67
2024/01/30 02:46:07;;;;;;;22.30;10.93;;;;;;;-2.01;100.00;102346.88;6273326;28;20052;-68
2024/01/30 02:49:08;;;;;;;18.52;10.23;;;;;;;-1.99;100.00;102339.25;6271272;28;20057;-67
2024/01/30 02:52:08;;;;;;;14.43;7.90;;;;;;;-2.08;100.00;102342.41;6271419;28;20049;-68
2024/01/30 02:55:10;;;;;;;15.85;8.65;;;;;;;-1.99;100.00;102350.34;6272781;28;20095;-67
2024/01/30 02:58:11;;;;;;;22.27;8.98;;;;;;;-1.94;100.00;102347.91;6270803;28;20067;-67
2024/01/30 03:01:12;;;;;;;17.17;9.38;;;;;;;-1.96;100.00;102349.56;6272745;28;20497;-67
2024/01/30 03:04:13;;;;;;;13.80;8.18;;;;;;;-1.93;100.00;102347.09;6274700;28;20049;-67
2024/01/30 03:07:14;;;;;;;19.30;9.52;;;;;;;-1.92;100.00;102357.34;6274595;28;20052;-67
2024/01/30 03:10:15;;;;;;;17.45;9.32;;;;;;;-2.00;100.00;102353.72;6271591;28;20056;-67
2024/01/30 03:13:15;;;;;;;15.45;8.75;;;;;;;-1.91;100.00;102348.84;6281648;28;20041;-67
2024/01/30 03:16:16;;;;;;;13.43;7.38;;;;;;;-1.91;100.00;102350.56;6271599;28;20419;-68
2024/01/30 03:19:18;;;;;;;16.63;7.70;;;;;;;-1.99;100.00;102339.25;6270866;28;20048;-67
2024/01/30 03:22:19;;;;;;;17.05;8.77;;;;;;;-1.95;100.00;102343.63;6260945;28;20048;-67
2024/01/30 03:25:20;;;;;;;14.38;8.52;;;;;;;-2.00;100.00;102340.06;6259738;28;20053;-67
2024/01/30 03:28:21;;;;;;;16.10;8.95;;;;;;;-1.96;100.00;102340.19;6264059;28;20434;-67
2024/01/30 03:31:21;;;;;;;21.52;9.68;;;;;;;-2.00;100.00;102343.47;6270523;28;20053;-67
2024/01/30 03:34:22;;;;;;;18.08;7.75;;;;;;;-2.00;100.00;102333.25;6272082;28;20099;-68
2024/01/30 03:37:23;;;;;;;15.38;7.63;;;;;;;-1.99;100.00;102340.09;6268990;28;20048;-67
2024/01/30 03:40:24;;;;;;;18.85;10.40;;;;;;;-2.07;100.00;102332.22;6267611;28;20045;-71
2024/01/30 03:43:25;;;;;;;19.20;9.38;;;;;;;-2.06;100.00;102341.63;6270976;28;20533;-68
2024/01/30 03:46:26;;;;;;;16.13;8.75;;;;;;;-2.04;100.00;102349.34;6271110;28;20488;-68
2024/01/30 03:49:27;;;;;;;15.00;7.70;;;;;;;-2.10;100.00;102339.81;6272178;28;20065;-68
2024/01/30 03:52:27;;;;;;;15.70;8.32;;;;;;;-2.09;100.00;102338.13;6273350;28;20044;-68
2024/01/30 03:55:28;;;;;;;19.63;9.13;;;;;;;-2.11;100.00;102339.78;6273435;28;20056;-67
2024/01/30 03:58:29;;;;;;;15.38;9.13;;;;;;;-2.11;100.00;102335.50;6270994;28;20060;-68
2024/01/30 04:01:30;;;;;;;14.45;8.77;;;;;;;-2.11;100.00;102340.63;6272422;28;20541;-68
2024/01/30 04:04:31;;;;;;;21.05;9.55;;;;;;;-2.13;100.00;102349.09;6272654;28;20139;-67
2024/01/30 04:07:31;;;;;;;20.13;11.05;;;;;;;-2.10;100.00;102338.94;6271701;28;20092;-67
2024/01/30 04:10:34;;;;;;;20.75;9.73;;;;;;;-2.09;100.00;102338.97;6272990;28;20068;-73
2024/01/30 04:13:35;;;;;;;19.33;8.80;;;;;;;-2.06;100.00;102335.63;6272905;28;20060;-67
2024/01/30 04:16:36;;;;;;;20.05;11.75;;;;;;;-2.05;100.00;102332.28;6271698;28;20492;-68
2024/01/30 04:19:38;;;;;;;19.63;10.68;;;;;;;-2.09;100.00;102327.88;6272547;28;20061;-73
2024/01/30 04:22:39;;;;;;;22.45;11.75;;;;;;;-2.06;100.00;102338.19;6268537;28;20057;-67
2024/01/30 04:25:40;;;;;;;21.58;11.98;;;;;;;-2.04;100.00;102341.66;6263638;28;20423;-67
2024/01/30 04:28:42;;;;;;;16.73;10.15;;;;;;;-2.00;100.00;102343.47;6272292;28;20464;-67
2024/01/30 04:31:45;;;;;;;21.10;10.83;;;;;;;-2.00;100.00;102346.03;6272120;28;20476;-73
2024/01/30 04:34:46;;;;;;;22.05;11.25;;;;;;;-1.97;100.00;102347.84;6248428;28;20049;-73
2024/01/30 04:37:47;;;;;;;26.20;11.52;;;;;;;-1.95;100.00;102351.31;6246296;28;20053;-67
2024/01/30 04:40:47;;;;;;;39.22;16.88;;;;;;;-1.97;100.00;102348.69;6245316;28;20049;-73
2024/01/30 04:43:51;;;;;;;28.15;14.77;;;;;;;-2.04;100.00;102347.66;6247545;28;20059;-73
2024/01/30 04:46:51;;;;;;;28.00;14.00;;;;;;;-2.06;100.00;102359.56;6247302;28;20065;-67
2024/01/30 04:49:52;;;;;;;21.58;12.98;;;;;;;-2.04;100.00;102355.34;6261792;28;20427;-67
2024/01/30 04:52:53;;;;;;;23.52;11.75;;;;;;;-2.05;100.00;102361.28;6272189;28;20368;-73
2024/01/30 04:55:54;;;;;;;38.78;12.40;;;;;;;-2.04;100.00;102365.56;6270711;28;20059;-73
2024/01/30 04:58:55;;;;;;;19.15;10.25;;;;;;;-2.11;100.00;102352.56;6271702;28;20048;-68
2024/01/30 05:01:55;;;;;;;20.33;10.27;;;;;;;-2.08;100.00;102366.31;6260492;28;20060;-67
2024/01/30 05:04:57;;;;;;;24.38;11.50;;;;;;;-2.09;100.00;102372.25;6247058;28;20488;-67
2024/01/30 05:08:00;;;;;;;20.05;9.52;;;;;;;-2.06;100.00;102376.56;6244955;28;20063;-67
2024/01/30 05:11:03;;;;;;;18.92;10.50;;;;;;;-2.05;100.00;102368.09;6245917;28;20045;-68
2024/01/30 05:14:04;;;;;;;25.33;12.02;;;;;;;-2.01;100.00;102364.78;6261274;28;20477;-67
2024/01/30 05:17:05;;;;;;;24.05;11.27;;;;;;;-1.96;100.00;102367.47;6267551;28;20049;-68
2024/01/30 05:20:09;;;;;;;21.73;10.85;;;;;;;-1.92;100.00;102367.59;6269624;28;20095;-68
2024/01/30 05:23:10;;;;;;;25.38;10.43;;;;;;;-1.89;100.00;102375.34;6269264;28;20041;-73
2024/01/30 05:26:11;;;;;;;24.52;11.40;;;;;;;-1.83;100.00;102377.22;6270267;28;20045;-73
2024/01/30 05:29:11;;;;;;;21.38;10.57;;;;;;;-1.90;100.00;102378.72;6265352;28;20136;-73
2024/01/30 05:32:12;;;;;;;19.73;11.15;;;;;;;-1.89;100.00;102388.16;6267080;28;20068;-73
2024/01/30 05:35:13;;;;;;;28.90;14.63;;;;;;;-1.89;100.00;102379.63;6267686;28;20049;-73
2024/01/30 05:38:16;;;;;;;32.15;16.58;;;;;;;-1.92;100.00;102384.63;6267544;28;20140;-73
2024/01/30 05:41:16;;;;;;;34.83;13.70;;;;;;;-1.98;100.00;102387.88;6267732;28;20052;-73
2024/01/30 05:44:17;;;;;;;26.90;13.85;;;;;;;-2.03;100.00;102390.31;6267547;28;20048;-67
2024/01/30 05:47:18;;;;;;;30.48;14.57;;;;;;;-2.01;100.00;102385.25;6269337;28;20088;-67
2024/01/30 05:50:19;;;;;;;19.23;10.75;;;;;;;-2.08;100.00;102385.88;6268787;28;20053;-67
2024/01/30 05:53:20;;;;;;;24.17;12.30;;;;;;;-2.18;100.00;102387.34;6268647;28;20052;-74
2024/01/30 05:56:23;;;;;;;35.30;12.30;;;;;;;-2.23;100.00;102388.88;6268959;28;20049;-74
2024/01/30 05:59:24;;;;;;;20.10;11.43;;;;;;;-2.19;100.00;102387.28;6268603;28;20091;-68
2024/01/30 06:02:24;;;;;;;37.08;15.90;;;;;;;-2.14;100.00;102396.84;6271954;28;20049;-74
2024/01/30 06:05:25;;;;;;;30.45;13.80;;;;;;;-2.12;100.00;102394.31;6273510;28;20049;-73
2024/01/30 06:08:26;;;;;;;22.35;11.55;;;;;;;-2.10;100.00;102395.22;6274550;28;20566;-73
2024/01/30 06:11:27;;;;;;;22.52;10.40;;;;;;;-2.08;100.00;102397.00;6273524;28;20044;-73
2024/01/30 06:14:28;;;;;;;22.75;12.65;;;;;;;-2.10;100.00;102396.09;6274574;28;20488;-67
2024/01/30 06:17:29;;;;;;;20.75;11.10;;;;;;;-2.06;100.00;102397.03;6273547;28;20056;-73
2024/01/30 06:20:29;;;;;;;18.40;11.02;;;;;;;-2.14;100.00;102401.97;6273187;28;20096;-73
2024/01/30 06:23:33;;;;;;;23.00;10.43;;;;;;;-2.12;100.00;102397.75;6275157;28;20048;-73
2024/01/30 06:26:34;;;;;;;26.02;11.98;;;;;;;-2.08;100.00;102416.59;6273039;28;20518;-73
2024/01/30 06:29:35;;;;;;;22.38;11.38;;;;;;;-2.10;100.00;102408.91;6273225;28;20049;-73
2024/01/30 06:32:36;;;;;;;15.93;10.20;;;;;;;-2.12;100.00;102402.88;6272897;28;20049;-73
2024/01/30 06:35:40;;;;;;;18.35;10.65;;;;;;;-2.10;100.00;102410.56;6273303;28;20099;-73
2024/01/30 06:38:41;;;;;;;21.60;11.07;;;;;;;-2.03;100.00;102408.22;6274060;28;20136;-67
2024/01/30 06:41:41;;;;;;;30.35;13.50;;;;;;;-1.99;100.00;102410.91;6272870;28;20049;-68
2024/01/30 06:44:42;;;;;;;26.98;11.25;;;;;;;-1.99;100.00;102401.50;6272723;28;20068;-67
2024/01/30 06:47:43;;;;;;;26.40;13.32;;;;;;;-1.89;100.00;102402.66;6273724;28;20098;-73
2024/01/30 06:50:45;;;;;;;19.70;10.80;;;;;;;-1.83;100.00;102403.69;6272449;28;20456;-73
2024/01/30 06:53:48;;;;;;;25.33;12.32;;;;;;;-1.69;100.00;102403.19;6272497;28;20049;-73
2024/01/30 06:56:49;;;;;;;18.30;10.20;;;;;;;-1.53;100.00;102405.31;6273789;28;20045;-73
2024/01/30 06:59:50;;;;;;;21.35;10.20;;;;;;;-1.42;100.00;102403.91;6272255;28;20056;-73
2024/01/30 07:02:51;;;;;;;15.20;8.80;;;;;;;-1.31;100.00;102414.44;6272179;28;20041;-73
2024/01/30 07:05:54;;;;;;;19.77;9.65;;;;;;;-1.22;100.00;102416.34;6272266;28;20246;-73
2024/01/30 07:08:56;;;;;;;22.20;11.55;;;;;;;-1.09;100.00;102415.84;6273195;28;20064;-73
2024/01/30 07:11:58;;;;;;;36.47;11.57;;;;;;;-0.92;100.00;102429.06;6273663;28;20049;-73
2024/01/30 07:14:59;;;;;;;18.02;10.07;;;;;;;-0.80;100.00;102428.50;6270913;28;20053;-73
2024/01/30 07:18:00;;;;;;;21.30;11.43;;;;;;;-0.83;100.00;102426.72;6271798;28;20491;-73
2024/01/30 07:21:01;;;;;;;22.60;9.88;;;;;;;-0.63;100.00;102436.59;6272806;28;20055;-73
2024/01/30 07:24:02;;;;;;;19.65;10.95;;;;;;;-0.58;100.00;102424.72;6272035;28;20128;-73
2024/01/30 07:27:03;;;;;;;18.30;10.88;;;;;;;-0.45;100.00;102424.19;6273232;28;20064;-73
2024/01/30 07:30:04;;;;;;;19.35;9.40;;;;;;;-0.36;100.00;102418.38;6271508;28;20455;-73
2024/01/30 07:33:05;;;;;;;23.38;11.30;;;;;;;-0.22;100.00;102429.81;6272696;28;20085;-73
2024/01/30 07:36:06;;;;;;;14.45;9.75;;;;;;;-0.09;100.00;102430.09;6272392;28;20049;-73
2024/01/30 07:39:07;;;;;;;16.95;10.20;;;;;;;0.09;100.00;102432.16;6271658;28;20048;-68
2024/01/30 07:42:10;;;;;;;25.05;9.80;;;;;;;0.21;100.00;102424.72;6271372;28;20115;-73
2024/01/30 07:45:11;;;;;;;20.48;10.90;;;;;;;0.33;100.00;102418.94;6271346;28;20049;-68
2024/01/30 07:48:12;;;;;;;24.88;10.32;;;;;;;0.56;100.00;102422.81;6271165;28;20053;-73
2024/01/30 07:51:13;;;;;;;20.85;11.90;;;;;;;0.67;100.00;102415.28;6271531;28;20049;-73
2024/01/30 07:54:14;;;;;;;19.20;11.18;;;;;;;0.89;100.00;102420.81;6272204;28;20055;-68
2024/01/30 07:57:14;;;;;;;16.73;10.30;;;;;;;0.81;100.00;102423.25;6272378;28;20491;-67
2024/01/30 08:00:16;;;;;;;23.27;9.63;;;;;;;1.09;100.00;102427.16;6270805;28;20085;-68
2024/01/30 08:03:19;;;;;;;17.50;8.85;;;;;;;1.27;100.00;102433.41;6272140;28;20041;-73
2024/01/30 08:06:20;;;;;;;15.68;8.30;;;;;;;1.37;100.00;102430.13;6271966;28;20486;-73
2024/01/30 08:09:21;;;;;;;16.40;8.02;;;;;;;1.42;100.00;102436.19;6270634;28;20089;-68
2024/01/30 08:12:22;;;;;;;14.77;8.43;;;;;;;1.38;100.00;102424.13;6270558;28;20256;-68
2024/01/30 08:15:25;;;;;;;24.35;7.20;;;;;;;1.36;100.00;102430.97;6271999;28;20132;-73
2024/01/30 08:18:26;;;;;;;10.70;7.05;;;;;;;1.58;100.00;102440.72;6270914;28;20407;-73
2024/01/30 08:21:29;;;;;;;14.35;7.60;;;;;;;1.66;100.00;102419.41;6269733;28;20052;-73
2024/01/30 08:24:30;;;;;;;14.02;8.23;;;;;;;1.83;100.00;102433.34;6270170;28;20055;-69
2024/01/30 08:27:31;;;;;;;10.98;7.10;;;;;;;1.80;100.00;102428.16;6269892;28;20462;-68
2024/01/30 08:30:34;;;;;;;14.80;6.88;;;;;;;1.85;100.00;102423.06;6270084;28;20068;-68
2024/01/30 08:33:35;;;;;;;10.32;5.65;;;;;;;1.82;100.00;102434.22;6270020;28;20045;-68
2024/01/30 08:36:36;;;;;;;10.73;6.13;;;;;;;1.90;100.00;102431.75;6270127;28;20056;-67
2024/01/30 08:39:37;;;;;;;16.73;7.47;;;;;;;1.96;100.00;102435.25;6269046;28;20118;-68
2024/01/30 08:42:40;;;;;;;11.95;6.50;;;;;;;2.11;100.00;102439.72;6270839;28;20090;-69
2024/01/30 08:45:42;;;;;;;14.98;7.43;;;;;;;2.39;100.00;102433.19;6269633;28;20052;-68
2024/01/30 08:48:43;;;;;;;15.65;7.00;;;;;;;2.25;100.00;102434.75;6271056;28;20129;-68
2024/01/30 08:51:44;;;;;;;13.27;6.97;;;;;;;2.54;100.00;102435.06;6269546;28;20045;-68
2024/01/30 08:54:45;;;;;;;12.70;6.22;;;;;;;2.41;100.00;102430.63;6269350;28;20041;-68
2024/01/30 08:57:46;;;;;;;18.95;7.90;;;;;;;2.45;100.00;102427.25;6270760;28;20407;-68
2024/01/30 09:00:47;;;;;;;19.50;7.60;;;;;;;2.59;100.00;102438.56;6270509;28;20052;-68
2024/01/30 09:03:50;;;;;;;9.55;5.55;;;;;;;2.54;100.00;102440.22;6268692;28;20064;-68
2024/01/30 09:06:51;;;;;;;18.80;6.75;;;;;;;2.74;100.00;102432.69;6270901;28;20057;-68
2024/01/30 09:09:52;;;;;;;9.60;5.10;;;;;;;2.77;100.00;102440.44;6270351;28;20557;-68
2024/01/30 09:12:53;;;;;;;12.50;6.85;;;;;;;2.72;99.57;102434.38;6268808;28;20044;-68
2024/01/30 09:15:54;;;;;;;11.77;5.90;;;;;;;2.80;98.49;102431.84;6269147;28;20059;-73
2024/01/30 09:18:55;;;;;;;10.67;6.53;;;;;;;2.94;98.52;102435.41;6270061;28;20053;-73
2024/01/30 09:21:56;;;;;;;11.32;5.80;;;;;;;3.03;97.48;102442.41;6268088;28;20041;-73
2024/01/30 09:24:57;;;;;;;14.93;6.72;;;;;;;3.40;96.61;102428.03;6270282;28;20153;-73
2024/01/30 09:27:59;;;;;;;12.60;6.40;;;;;;;3.32;95.45;102434.88;6268863;28;20146;-73
2024/01/30 09:30:59;;;;;;;9.55;5.68;;;;;;;3.39;94.48;102428.88;6269230;28;20049;-73
2024/01/30 09:34:00;;;;;;;15.95;6.20;;;;;;;3.65;92.74;102432.50;6270160;28;20052;-73
2024/01/30 09:37:02;;;;;;;10.38;5.70;;;;;;;3.62;92.16;102426.47;6269882;28;20079;-73
2024/01/30 09:40:03;;;;;;;10.07;5.43;;;;;;;3.55;91.25;102422.13;6270232;28;20052;-73
2024/01/30 09:43:05;;;;;;;10.45;6.40;;;;;;;3.67;91.12;102428.22;6268846;28;20045;-73
2024/01/30 09:46:11;;;;;;;12.23;6.43;;;;;;;3.83;90.59;102430.88;6268977;28;20056;-73
2024/01/30 09:49:13;;;;;;;11.75;5.53;;;;;;;3.92;89.44;102422.31;6270437;28;20053;-73
2024/01/30 09:52:15;;;;;;;16.70;7.22;;;;;;;4.20;88.98;102418.13;6270109;28;20073;-73
2024/01/30 09:55:18;;;;;;;11.32;7.18;;;;;;;4.25;88.99;102418.13;6269967;28;20049;-73
2024/01/30 09:58:19;;;;;;;8.57;5.25;;;;;;;4.04;87.41;102416.34;6268803;28;20119;-73
2024/01/30 10:01:21;;;;;;;14.65;5.45;;;;;;;4.19;88.01;102410.34;6268797;28;20048;-73
2024/01/30 10:04:22;;;;;;;15.00;5.50;;;;;;;4.24;88.01;102409.50;6268885;28;20053;-73
2024/01/30 10:07:25;;;;;;;8.30;5.35;;;;;;;4.40;85.54;102407.81;6268535;28;20084;-74
2024/01/30 10:10:26;;;;;;;12.52;6.85;;;;;;;4.67;84.06;102405.28;6268428;28;20498;-69
2024/01/30 10:13:29;;;;;;;9.60;5.22;;;;;;;4.88;83.47;102401.84;6268391;28;20053;-68
2024/01/30 10:16:30;;;;;;;13.52;5.78;;;;;;;4.92;82.88;102401.84;6269829;28;20105;-69
2024/01/30 10:19:31;;;;;;;9.20;5.20;;;;;;;4.72;84.12;102396.66;6268326;28;20423;-68
2024/01/30 10:22:32;;;;;;;8.70;5.10;;;;;;;4.68;84.24;102399.25;6269363;28;20045;-68
2024/01/30 10:25:33;;;;;;;8.57;4.85;;;;;;;4.50;84.67;102398.34;6268744;28;20091;-68
2024/01/30 10:28:34;;;;;;;7.95;5.28;;;;;;;4.72;84.09;102396.66;6269482;28;20348;-68
2024/01/30 10:31:35;;;;;;;10.13;5.13;;;;;;;4.80;83.11;102396.69;6269655;28;20483;-69
2024/01/30 10:34:36;;;;;;;8.75;5.10;;;;;;;4.84;83.66;102390.66;6268221;28;20053;-73
2024/01/30 10:37:37;;;;;;;11.20;5.57;;;;;;;5.03;83.64;102387.19;6268599;28;20056;-74
2024/01/30 10:40:39;;;;;;;8.52;5.13;;;;;;;4.93;82.29;102387.19;6268086;28;20057;-73
2024/01/30 10:43:50;;;;;;;11.17;6.53;;;;;;;5.20;81.85;102384.56;6269583;28;20081;-73
2024/01/30 10:47:02;;;;;;;7.68;4.82;;;;;;;5.16;81.11;102372.50;6268224;28;20080;-73
2024/01/30 10:50:03;;;;;;;8.33;5.27;;;;;;;5.13;82.22;102374.25;6272105;28;20545;-73
2024/01/30 10:53:05;;;;;;;9.82;5.43;;;;;;;5.57;81.83;102365.50;6273488;28;20456;-73
2024/01/30 10:56:08;;;;;;;11.30;5.68;;;;;;;5.57;81.22;102368.09;6272754;28;20053;-73
2024/01/30 10:59:09;;;;;;;10.95;5.40;;;;;;;5.27;81.69;102363.84;6273629;28;20056;-73
2024/01/30 11:02:11;;;;;;;13.93;5.37;;;;;;;5.55;81.63;102357.72;6272235;28;20075;-73
2024/01/30 11:05:12;;;;;;;9.77;5.25;;;;;;;5.70;81.93;102361.13;6273576;28;20145;-73
2024/01/30 11:08:13;;;;;;;8.13;4.93;;;;;;;5.85;81.44;102350.72;6271943;28;20048;-73
2024/01/30 11:11:18;;;;;;;8.90;4.77;;;;;;;5.63;80.11;102350.78;6273409;28;20045;-73
2024/01/30 11:14:25;;;;;;;11.73;5.43;;;;;;;5.33;82.64;102356.06;6271938;28;20426;-73
2024/01/30 11:17:27;;;;;;;10.73;5.13;;;;;;;5.48;83.00;102357.75;6272049;28;20084;-73
2024/01/30 11:20:32;;;;;;;9.80;5.60;;;;;;;5.38;82.20;102346.56;6273004;28;20431;-73
2024/01/30 11:23:36;;;;;;;9.85;4.80;;;;;;;5.50;82.11;102354.31;6273091;28;20047;-73
2024/01/30 11:26:38;;;;;;;11.32;5.43;;;;;;;5.36;83.11;102348.31;6271627;28;20356;-73
2024/01/30 11:29:40;;;;;;;9.25;5.53;;;;;;;5.53;82.42;102343.91;6273135;28;20053;-73
2024/01/30 11:32:41;;;;;;;7.25;4.18;;;;;;;5.77;82.64;102339.53;6272690;28;20056;-73
2024/01/30 11:35:44;;;;;;;9.95;4.97;;;;;;;5.76;82.11;102341.22;6271711;28;20403;-73
2024/01/30 11:38:46;;;;;;;11.25;5.07;;;;;;;5.71;81.94;102350.78;6272654;28;20514;-68
2024/01/30 11:41:50;;;;;;;11.25;5.65;;;;;;;5.72;83.22;102342.13;6271485;28;20110;-68
2024/01/30 11:44:51;;;;;;;10.43;5.07;;;;;;;5.67;83.65;102341.28;6272412;28;20495;-68
2024/01/30 11:47:55;;;;;;;9.13;5.07;;;;;;;5.58;83.81;102334.44;6271226;28;20048;-69
2024/01/30 11:50:56;;;;;;;10.70;6.13;;;;;;;5.81;83.64;102341.25;6271145;28;20507;-69
2024/01/30 11:53:57;;;;;;;17.67;7.55;;;;;;;6.15;82.47;102333.31;6270989;28;20056;-69
2024/01/30 11:57:00;;;;;;;14.80;7.75;;;;;;;6.18;82.75;102339.34;6270888;28;20048;-69
2024/01/30 12:00:04;;;;;;;13.13;7.45;;;;;;;6.12;81.61;102321.22;6270407;28;20088;-68
2024/01/30 12:03:06;;;;;;;12.63;6.15;;;;;;;6.40;81.52;102326.22;6271047;28;20150;-68
2024/01/30 12:06:08;;;;;;;12.68;6.75;;;;;;;6.42;82.50;102314.97;6270783;28;20049;-69
2024/01/30 12:09:10;;;;;;;11.05;6.13;;;;;;;6.71;80.41;102311.25;6271884;28;20148;-69
2024/01/30 12:12:11;;;;;;;10.63;5.95;;;;;;;6.62;80.88;102314.78;6270613;28;20418;-68
2024/01/30 12:15:13;;;;;;;11.33;6.13;;;;;;;6.45;82.17;102314.94;6270517;28;20471;-69
2024/01/30 12:18:16;;;;;;;11.93;6.80;;;;;;;6.54;81.49;102311.41;6270477;28;20570;-68
2024/01/30 12:21:17;;;;;;;11.13;6.75;;;;;;;6.61;82.91;102307.91;6270301;28;20297;-68
2024/01/30 12:24:18;;;;;;;12.67;6.10;;;;;;;6.82;81.41;102306.00;6270659;28;20045;-69
2024/01/30 12:27:19;;;;;;;17.92;7.53;;;;;;;6.57;79.98;102311.41;6270287;28;20091;-68
2024/01/30 12:30:23;;;;;;;11.38;6.32;;;;;;;6.47;80.10;102301.13;6271809;28;20085;-69
2024/01/30 12:33:27;;;;;;;10.98;6.78;;;;;;;6.50;79.58;102301.06;6271218;28;20045;-68
2024/01/30 12:36:31;;;;;;;18.88;7.13;;;;;;;6.59;80.15;102298.38;6270473;28;20053;-69
2024/01/30 12:39:31;;;;;;;17.52;7.70;;;;;;;6.55;80.26;102297.56;6271717;28;20136;-69
2024/01/30 12:42:32;;;;;;;17.15;8.50;;;;;;;6.44;81.64;102289.00;6270118;28;20143;-69
2024/01/30 12:45:33;;;;;;;7.78;5.38;;;;;;;6.37;82.04;102288.19;6271040;28;20056;-68
2024/01/30 12:48:34;;;;;;;13.88;7.05;;;;;;;6.42;82.09;102289.03;6269874;28;20385;-68
2024/01/30 12:51:38;;;;;;;10.57;6.05;;;;;;;6.44;81.06;102294.19;6269664;28;20484;-68
2024/01/30 12:54:39;;;;;;;13.63;7.05;;;;;;;6.53;82.31;102285.50;6269694;28;20507;-69
2024/01/30 12:57:39;;;;;;;10.80;5.90;;;;;;;6.78;81.50;102274.00;6270935;28;20067;-69
2024/01/30 13:00:40;;;;;;;13.38;7.15;;;;;;;6.58;81.88;102279.38;6269559;28;20048;-68
2024/01/30 13:03:41;;;;;;;12.90;6.60;;;;;;;6.58;81.36;102287.16;6269525;28;20051;-73
2024/01/30 13:06:42;;;;;;;8.32;5.35;;;;;;;6.41;81.93;102276.09;6270588;28;20064;-74
2024/01/30 13:09:43;;;;;;;11.30;6.60;;;;;;;6.50;83.65;102268.22;6269203;28;20057;-69
2024/01/30 13:12:44;;;;;;;12.88;6.90;;;;;;;6.59;83.86;102267.25;6269589;28;20041;-68
2024/01/30 13:15:45;;;;;;;15.38;7.43;;;;;;;6.47;83.96;102263.06;6270529;28;20048;-68
2024/01/30 13:18:46;;;;;;;14.63;7.13;;;;;;;6.63;83.90;102269.84;6269257;28;20074;-68
2024/01/30 13:21:47;;;;;;;12.65;6.57;;;;;;;6.54;84.83;102269.91;6269119;28;20152;-68
2024/01/30 13:24:48;;;;;;;11.23;7.07;;;;;;;6.62;84.48;102262.91;6270367;28;20053;-68
2024/01/30 13:27:54;;;;;;;17.00;7.00;;;;;;;6.57;83.83;102259.50;6269159;28;20111;-68
2024/01/30 13:30:55;;;;;;;10.90;6.20;;;;;;;6.57;84.09;102261.22;6270439;28;20135;-69
2024/01/30 13:33:56;;;;;;;13.35;6.85;;;;;;;6.60;84.00;102261.22;6268924;28;20090;-73
2024/01/30 13:36:57;;;;;;;11.77;6.65;;;;;;;6.53;84.26;102255.22;6269190;28;20049;-73
2024/01/30 13:39:58;;;;;;;12.63;6.93;;;;;;;6.41;83.95;102252.75;6269267;28;20075;-68
2024/01/30 13:42:59;;;;;;;12.57;7.03;;;;;;;6.61;84.22;102249.94;6270007;28;20049;-73
2024/01/30 13:45:59;;;;;;;15.73;8.57;;;;;;;6.55;85.78;102247.44;6268802;28;20469;-74
2024/01/30 13:49:01;;;;;;;13.90;7.68;;;;;;;6.63;86.47;102245.59;6268831;28;20095;-73
2024/01/30 13:52:03;;;;;;;17.17;8.73;;;;;;;6.53;86.59;102244.00;6268873;28;20323;-73